createdAt,value
2019-03-04T00:04:36.546Z,99.90
2019-03-04T00:09:42.812Z,99.90
2019-03-04T00:14:50.363Z,99.90
2019-03-04T00:19:57.694Z,99.90
2019-03-04T00:25:03.935Z,99.90
2019-03-04T00:30:11.797Z,99.90
2019-03-04T00:35:19.123Z,99.90
2019-03-04T00:40:27.315Z,99.90
2019-03-04T00:45:33.415Z,99.90
2019-03-04T00:50:41.162Z,99.90
2019-03-04T00:55:48.881Z,99.90
2019-03-04T01:00:54.816Z,99.90
2019-03-04T01:06:00.922Z,99.90
2019-03-04T01:11:08.608Z,99.90
2019-03-04T01:16:14.562Z,99.90
2019-03-04T01:21:21.821Z,99.90
2019-03-04T01:26:29.538Z,99.90
2019-03-04T01:31:37.090Z,99.90
2019-03-04T01:36:43.587Z,99.90
2019-03-04T01:41:50.854Z,99.90
2019-03-04T01:46:58.414Z,99.90
2019-03-04T01:52:04.475Z,99.90
2019-03-04T01:57:11.658Z,99.90
2019-03-04T02:02:19.304Z,99.90
2019-03-04T02:07:26.481Z,99.90
2019-03-04T02:12:32.732Z,99.90
2019-03-04T02:17:40.194Z,99.90
2019-03-04T02:22:47.976Z,99.90
2019-03-04T02:27:55.051Z,99.90
2019-03-04T02:33:02.652Z,99.90
2019-03-04T02:38:09.347Z,99.90
2019-03-04T02:43:17.060Z,99.90
2019-03-04T02:48:22.971Z,99.90
2019-03-04T02:53:30.313Z,99.90
2019-03-04T02:58:36.456Z,99.90
2019-03-04T03:03:42.668Z,99.90
2019-03-04T03:08:50.154Z,99.90
2019-03-04T03:13:57.711Z,99.90
2019-03-04T03:19:03.650Z,99.90
2019-03-04T03:24:10.964Z,99.90
2019-03-04T03:29:18.497Z,99.90
2019-03-04T03:34:24.418Z,99.90
2019-03-04T03:39:31.713Z,99.90
2019-03-04T03:44:39.274Z,99.90
2019-03-04T03:49:46.867Z,99.90
2019-03-04T03:54:52.970Z,99.90
2019-03-04T03:59:59.155Z,99.90
2019-03-04T04:05:06.944Z,99.90
2019-03-04T04:10:13.915Z,99.90
2019-03-04T04:15:22.039Z,99.90
2019-03-04T04:20:29.757Z,99.90
2019-03-04T04:25:37.694Z,99.90
2019-03-04T04:30:43.808Z,99.90
2019-03-04T04:35:51.700Z,99.90
2019-03-04T04:40:59.263Z,99.90
2019-03-04T04:46:06.900Z,99.90
2019-03-04T04:51:12.809Z,99.90
2019-03-04T04:56:20.141Z,99.90
2019-03-04T05:01:27.783Z,99.90
2019-03-04T05:06:34.195Z,99.90
2019-03-04T05:11:41.478Z,99.90
2019-03-04T05:16:49.138Z,99.90
2019-03-04T05:21:56.420Z,99.90
2019-03-04T05:27:02.475Z,99.90
2019-03-04T05:32:09.152Z,99.90
2019-03-04T05:37:16.715Z,99.90
2019-03-04T05:42:24.536Z,99.90
2019-03-04T05:47:31.623Z,99.90
2019-03-04T05:52:39.283Z,99.90
2019-03-04T05:57:46.926Z,99.90
2019-03-04T06:02:53.071Z,99.90
2019-03-04T06:08:05.157Z,99.90
2019-03-04T06:13:12.793Z,99.90
2019-03-04T06:18:20.208Z,99.90
2019-03-04T06:23:27.705Z,99.90
2019-03-04T06:28:33.650Z,99.90
2019-03-04T06:33:41.081Z,99.90
2019-03-04T06:38:48.738Z,99.90
2019-03-04T06:43:54.875Z,99.90
2019-03-04T06:49:02.536Z,99.90
2019-03-04T06:54:59.270Z,99.90
2019-03-04T07:00:45.235Z,99.90
2019-03-04T07:05:53.434Z,99.90
2019-03-04T07:11:01.169Z,99.90
2019-03-04T07:16:09.040Z,99.90
2019-03-04T07:21:15.846Z,99.90
2019-03-04T07:26:23.179Z,99.90
2019-03-04T07:31:29.451Z,99.90
2019-03-04T07:36:36.664Z,99.90
2019-03-04T07:41:50.446Z,99.90
2019-03-04T07:46:58.229Z,99.90
2019-03-04T07:52:04.341Z,99.90
2019-03-04T07:57:12.197Z,99.90
2019-03-04T08:02:20.138Z,99.90
2019-03-04T08:07:51.981Z,99.90
2019-03-04T08:13:30.759Z,99.90
2019-03-04T08:18:38.638Z,99.90
2019-03-04T08:23:44.621Z,99.90
2019-03-04T08:28:51.458Z,99.90
2019-03-04T08:33:59.177Z,99.90
2019-03-04T08:39:09.158Z,99.90
2019-03-04T08:44:16.345Z,99.90
2019-03-04T08:49:22.358Z,99.90
2019-03-04T08:54:30.235Z,99.90
2019-03-04T08:59:37.763Z,99.90
2019-03-04T09:04:43.787Z,99.90
2019-03-04T09:09:51.670Z,99.90
2019-03-04T09:14:59.387Z,99.90
2019-03-04T09:20:08.067Z,99.90
2019-03-04T09:25:30.344Z,99.90
2019-03-04T09:30:35.166Z,99.90
2019-03-04T09:35:42.614Z,99.90
2019-03-04T09:40:50.434Z,99.90
2019-03-04T09:45:58.012Z,99.90
2019-03-04T09:51:04.463Z,99.90
2019-03-04T09:56:12.183Z,99.90
2019-03-04T10:01:29.103Z,99.90
2019-03-04T10:07:04.076Z,99.90
2019-03-04T10:12:40.126Z,99.90
2019-03-04T10:18:10.498Z,99.90
2019-03-04T10:24:00.735Z,99.90
2019-03-04T10:29:39.014Z,99.90
2019-03-04T10:35:15.965Z,99.90
2019-03-04T10:40:49.578Z,99.90
2019-03-04T10:46:35.164Z,99.90
2019-03-04T10:51:42.407Z,99.90
2019-03-04T10:56:50.427Z,99.90
2019-03-04T11:01:57.978Z,99.90
2019-03-04T11:07:04.232Z,99.90
2019-03-04T11:12:14.075Z,99.90
2019-03-04T11:17:20.979Z,99.90
2019-03-04T11:22:29.083Z,99.90
2019-03-04T11:27:37.466Z,99.90
2019-03-04T11:32:43.825Z,99.90
2019-03-04T11:37:53.143Z,99.90
2019-03-04T11:43:01.276Z,99.90
2019-03-04T11:48:09.516Z,99.90
2019-03-04T11:53:17.512Z,99.90
2019-03-04T11:58:23.619Z,99.90
2019-03-04T12:03:31.042Z,99.90
2019-03-04T12:08:38.967Z,99.90
2019-03-04T12:13:45.644Z,99.90
2019-03-04T12:18:52.512Z,99.90
2019-03-04T12:24:01.368Z,99.80
2019-03-04T12:29:09.350Z,99.00
2019-03-04T12:34:24.869Z,99.90
2019-03-04T12:39:32.372Z,99.90
2019-03-04T12:44:40.192Z,99.90
2019-03-04T12:49:46.828Z,99.90
2019-03-04T12:54:53.380Z,99.90
2019-03-04T13:00:01.008Z,99.90
2019-03-04T13:05:10.045Z,99.90
2019-03-04T13:10:17.966Z,98.60
2019-03-04T13:15:25.159Z,97.60
2019-03-04T13:20:32.742Z,96.30
2019-03-04T13:25:40.501Z,96.50
2019-03-04T13:30:48.693Z,99.90
2019-03-04T13:35:55.185Z,99.90
2019-03-04T13:41:03.435Z,99.90
2019-03-04T13:46:12.251Z,99.90
2019-03-04T13:51:19.574Z,99.90
2019-03-04T13:56:27.898Z,95.20
2019-03-04T14:01:34.274Z,94.50
2019-03-04T14:06:41.966Z,94.50
2019-03-04T14:11:50.028Z,92.80
2019-03-04T14:16:57.784Z,91.00
2019-03-04T14:22:04.271Z,99.40
2019-03-04T14:27:11.041Z,99.90
2019-03-04T14:32:19.321Z,99.90
2019-03-04T14:37:27.349Z,99.90
2019-03-04T14:42:33.927Z,99.90
2019-03-04T14:47:42.247Z,99.90
2019-03-04T14:52:50.151Z,99.90
2019-03-04T14:57:56.884Z,99.90
2019-03-04T15:03:03.188Z,99.90
2019-03-04T15:08:11.126Z,99.90
2019-03-04T15:13:19.079Z,99.90
2019-03-04T15:18:27.006Z,99.90
2019-03-04T15:23:33.157Z,99.90
2019-03-04T15:28:41.026Z,99.90
2019-03-04T15:33:48.723Z,99.90
2019-03-04T15:38:54.926Z,99.90
2019-03-04T15:44:02.322Z,99.90
2019-03-04T15:49:11.362Z,99.90
2019-03-04T15:54:20.187Z,99.90
2019-03-04T15:59:27.978Z,99.90
2019-03-04T16:04:36.879Z,99.90
2019-03-04T16:09:43.498Z,99.90
2019-03-04T16:14:51.435Z,99.90
2019-03-04T16:19:59.579Z,99.90
2019-03-04T16:25:08.158Z,99.90
2019-03-04T16:30:19.868Z,99.90
2019-03-04T16:35:28.596Z,99.90
2019-03-04T16:40:35.236Z,99.90
2019-03-04T16:45:42.760Z,99.90
2019-03-04T16:50:51.051Z,99.90
2019-03-04T16:55:59.684Z,99.90
2019-03-04T17:01:07.469Z,99.90
2019-03-04T17:06:14.942Z,99.90
2019-03-04T17:11:22.711Z,99.90
2019-03-04T17:16:30.427Z,99.90
2019-03-04T17:21:37.991Z,99.90
2019-03-04T17:26:44.420Z,99.90
2019-03-04T17:31:52.088Z,99.90
2019-03-04T17:36:59.314Z,99.90
2019-03-04T17:42:07.670Z,99.90
2019-03-04T17:47:13.961Z,99.90
2019-03-04T17:52:22.477Z,99.90
2019-03-04T17:57:30.693Z,99.90
2019-03-04T18:02:38.803Z,99.90
2019-03-04T18:07:45.294Z,99.90
2019-03-04T18:12:53.273Z,99.90
2019-03-04T18:18:01.226Z,99.90
2019-03-04T18:23:09.474Z,99.90
2019-03-04T18:28:37.867Z,99.90
2019-03-04T18:34:24.394Z,99.90
2019-03-04T18:39:53.823Z,99.90
2019-03-04T18:45:31.475Z,99.90
2019-03-04T18:50:39.033Z,99.90
2019-03-04T18:55:46.335Z,99.90
2019-03-04T19:00:53.154Z,99.90
2019-03-04T19:06:00.550Z,99.90
2019-03-04T19:11:08.589Z,99.90
2019-03-04T19:16:15.051Z,99.90
2019-03-04T19:21:22.995Z,99.90
2019-03-04T19:26:30.282Z,99.90
2019-03-04T19:31:36.881Z,99.90
2019-03-04T19:36:43.625Z,99.90
2019-03-04T19:41:51.678Z,99.90
2019-03-04T19:46:59.635Z,99.90
2019-03-04T19:52:08.050Z,99.90
2019-03-04T19:57:14.335Z,99.90
2019-03-04T20:02:21.092Z,99.90
2019-03-04T20:07:29.240Z,99.90
2019-03-04T20:12:36.318Z,99.90
2019-03-04T20:17:42.821Z,99.90
2019-03-04T20:22:50.659Z,99.90
2019-03-04T20:27:58.971Z,99.90
2019-03-04T20:33:06.279Z,99.90
2019-03-04T20:38:12.759Z,99.90
2019-03-04T20:43:20.765Z,99.90
2019-03-04T20:48:28.831Z,99.90
2019-03-04T20:53:35.219Z,99.90
2019-03-04T20:58:43.327Z,99.90
2019-03-04T21:03:51.438Z,99.90
2019-03-04T21:08:59.886Z,99.90
2019-03-04T21:14:06.722Z,99.90
2019-03-04T21:19:13.085Z,99.90
2019-03-04T21:24:20.595Z,99.90
2019-03-04T21:30:07.388Z,99.90
2019-03-04T21:35:59.054Z,99.90
2019-03-04T21:41:19.076Z,99.90
2019-03-04T21:46:53.665Z,99.90
2019-03-04T21:52:24.525Z,99.90
2019-03-04T21:57:38.263Z,99.90
2019-03-04T22:03:12.747Z,99.90
2019-03-04T22:08:21.709Z,99.90
2019-03-04T22:13:30.203Z,99.90
2019-03-04T22:18:38.350Z,99.90
2019-03-04T22:23:47.283Z,99.90
2019-03-04T22:28:55.187Z,99.90
2019-03-04T22:34:01.773Z,99.90
2019-03-04T22:39:09.983Z,99.90
2019-03-04T22:44:18.138Z,99.90
2019-03-04T22:49:24.507Z,99.90
2019-03-04T22:54:32.231Z,99.90
2019-03-04T22:59:40.100Z,99.90
2019-03-04T23:04:57.083Z,99.90
2019-03-04T23:10:10.216Z,99.90
2019-03-04T23:15:22.332Z,99.90
2019-03-04T23:20:29.537Z,99.90
2019-03-04T23:25:36.857Z,99.90
2019-03-04T23:30:43.277Z,99.90
2019-03-04T23:35:51.194Z,99.90
2019-03-04T23:40:57.934Z,99.90
2019-03-04T23:46:04.353Z,99.90
2019-03-04T23:51:11.278Z,99.90
2019-03-04T23:56:19.166Z,99.90
